Gore, OK

4:05 AM CST on December 20, 2014 (GMT -0600)
Tenkiller Harbor | Change Station
CLOSE
Current Station
Personal Weather Station
Location: Park Hill, OK
Elevation: 751 ft
Nearby Weather Stations

Elev 751 ft 35.65 °N, 95.04 °W | Updated 6 seconds ago

Overcast
Overcast
39.8 °F
Feels Like 40 °F
N
0.0
Wind Variable Wind from SW
Gusts 0.0 mph

Today
High -- | Low -- °F
--% Chance of Precip.
Yesterday
High -- | Low -- °F
Precip. -- in
7:25 AM 5:10 PM
Waning Crescent, 3% visible
Pressure 30.25 in
Visibility 6.0 miles
Clouds Overcast 1200 ft
Windchill 40 °F
Dew Point 40 °F
Humidity 99%
Rainfall 0.00 in
Snow Depth Not available.
UV 0 out of 12
Pollen 5.40 out of 12
Air Quality Not available.
Flu Activity Not available.
METAR KMKO 200953Z AUTO 33003KT 6SM BR OVC012 04/03 A3025 RMK AO2 SLP244 T00440028

More Conditions Fewer Conditions

Pressure 30.25 in
Visibility 6.0 miles
Clouds Overcast 1200 ft
Windchill 40 °F
Dew Point 40 °F
Humidity 99%
Rainfall 0.00 in
Snow Depth Not available.
UV 0 out of 12
Pollen 5.40 out of 12
Air Quality Not available.
Flu Activity Not available.
METAR KMKO 200953Z AUTO 33003KT 6SM BR OVC012 04/03 A3025 RMK AO2 SLP244 T00440028

More Conditions Fewer Conditions

10-Day Weather Forecast

Almanac

Astronomy

Dec. 20, 2014 Rise Set
Actual Time
Civil Twilight
Nautical Twilight
Astronomical Twilight
Moon
Length of Visible Light
Length of Day
Tomorrow will be .
, % of the Moon is Illuminated

Today's Extremes

State Highs State Lows

Community

WunderPhotos

Upload Photos

1,779,150 photos uploaded!

WunderBlogs® & News

Nearby

Air Quality

  Air Quality AQ Index Pollutant
Not available.

Snow Depth

Station Depth Elevation

Earthquake Activity

City Distance Mag. Time & Date
Minimum magnitude displayed is 2.5.

Coastal Water Temperatures

Place Temperature

Nearby Weather Stations